sensor_id;sensor_type;location;lat;lon;timestamp;P1;durP1;ratioP1;P2;durP2;ratioP2
6679;SDS011;3376;42.664;23.346;2023-08-24T00:01:44;12.50;;;11.73;;
6679;SDS011;3376;42.664;23.346;2023-08-24T00:04:11;13.17;;;12.20;;
6679;SDS011;3376;42.664;23.346;2023-08-24T00:06:38;13.23;;;12.50;;
6679;SDS011;3376;42.664;23.346;2023-08-24T00:09:05;13.43;;;12.73;;
6679;SDS011;3376;42.664;23.346;2023-08-24T00:11:32;12.70;;;12.00;;
6679;SDS011;3376;42.664;23.346;2023-08-24T00:13:58;12.73;;;11.90;;
6679;SDS011;3376;42.664;23.346;2023-08-24T00:16:26;12.30;;;11.53;;
6679;SDS011;3376;42.664;23.346;2023-08-24T00:18:54;12.40;;;11.57;;
6679;SDS011;3376;42.664;23.346;2023-08-24T00:21:21;11.93;;;11.33;;
6679;SDS011;3376;42.664;23.346;2023-08-24T00:23:49;11.80;;;11.03;;
6679;SDS011;3376;42.664;23.346;2023-08-24T00:26:16;12.33;;;11.60;;
6679;SDS011;3376;42.664;23.346;2023-08-24T00:28:43;11.97;;;11.07;;
6679;SDS011;3376;42.664;23.346;2023-08-24T00:31:10;11.60;;;10.57;;
6679;SDS011;3376;42.664;23.346;2023-08-24T00:33:39;12.53;;;11.83;;
6679;SDS011;3376;42.664;23.346;2023-08-24T00:36:06;12.27;;;11.57;;
6679;SDS011;3376;42.664;23.346;2023-08-24T00:38:33;12.53;;;11.73;;
6679;SDS011;3376;42.664;23.346;2023-08-24T00:41:00;13.30;;;12.00;;
6679;SDS011;3376;42.664;23.346;2023-08-24T00:43:27;13.53;;;12.10;;
6679;SDS011;3376;42.664;23.346;2023-08-24T00:45:55;12.63;;;11.73;;
6679;SDS011;3376;42.664;23.346;2023-08-24T00:48:25;13.03;;;12.20;;
6679;SDS011;3376;42.664;23.346;2023-08-24T00:50:55;13.50;;;12.30;;
6679;SDS011;3376;42.664;23.346;2023-08-24T00:53:22;12.40;;;11.57;;
6679;SDS011;3376;42.664;23.346;2023-08-24T00:55:52;13.73;;;12.83;;
6679;SDS011;3376;42.664;23.346;2023-08-24T00:58:19;12.50;;;11.80;;
6679;SDS011;3376;42.664;23.346;2023-08-24T01:00:46;13.87;;;12.70;;
6679;SDS011;3376;42.664;23.346;2023-08-24T01:03:14;13.47;;;12.60;;
6679;SDS011;3376;42.664;23.346;2023-08-24T01:05:40;12.70;;;12.00;;
6679;SDS011;3376;42.664;23.346;2023-08-24T01:08:09;13.10;;;12.27;;
6679;SDS011;3376;42.664;23.346;2023-08-24T01:10:38;14.37;;;12.90;;
6679;SDS011;3376;42.664;23.346;2023-08-24T01:13:10;14.97;;;13.70;;
6679;SDS011;3376;42.664;23.346;2023-08-24T01:15:44;13.50;;;12.60;;
6679;SDS011;3376;42.664;23.346;2023-08-24T01:18:18;13.23;;;12.40;;
6679;SDS011;3376;42.664;23.346;2023-08-24T01:20:48;14.00;;;13.00;;
6679;SDS011;3376;42.664;23.346;2023-08-24T01:23:26;14.00;;;13.27;;
6679;SDS011;3376;42.664;23.346;2023-08-24T01:26:06;13.67;;;12.77;;
6679;SDS011;3376;42.664;23.346;2023-08-24T01:28:36;14.10;;;13.40;;
6679;SDS011;3376;42.664;23.346;2023-08-24T01:31:20;14.53;;;13.47;;
6679;SDS011;3376;42.664;23.346;2023-08-24T01:33:47;13.90;;;13.03;;
6679;SDS011;3376;42.664;23.346;2023-08-24T01:36:15;13.40;;;12.70;;
6679;SDS011;3376;42.664;23.346;2023-08-24T01:38:43;14.03;;;13.23;;
6679;SDS011;3376;42.664;23.346;2023-08-24T01:41:15;14.17;;;13.07;;
6679;SDS011;3376;42.664;23.346;2023-08-24T01:43:46;13.70;;;12.70;;
6679;SDS011;3376;42.664;23.346;2023-08-24T01:46:18;13.97;;;13.00;;
6679;SDS011;3376;42.664;23.346;2023-08-24T01:48:47;13.70;;;12.77;;
6679;SDS011;3376;42.664;23.346;2023-08-24T01:51:15;13.60;;;12.93;;
6679;SDS011;3376;42.664;23.346;2023-08-24T01:53:42;13.47;;;12.60;;
6679;SDS011;3376;42.664;23.346;2023-08-24T01:56:11;13.37;;;12.77;;
6679;SDS011;3376;42.664;23.346;2023-08-24T01:58:42;13.33;;;12.73;;
6679;SDS011;3376;42.664;23.346;2023-08-24T02:01:09;13.87;;;13.17;;
6679;SDS011;3376;42.664;23.346;2023-08-24T02:03:37;12.80;;;11.90;;
6679;SDS011;3376;42.664;23.346;2023-08-24T02:06:05;12.63;;;11.93;;
6679;SDS011;3376;42.664;23.346;2023-08-24T02:08:32;13.30;;;12.40;;
6679;SDS011;3376;42.664;23.346;2023-08-24T02:10:58;14.23;;;13.37;;
6679;SDS011;3376;42.664;23.346;2023-08-24T02:13:27;14.10;;;13.17;;
6679;SDS011;3376;42.664;23.346;2023-08-24T02:16:00;13.90;;;12.93;;
6679;SDS011;3376;42.664;23.346;2023-08-24T02:18:27;14.23;;;13.47;;
6679;SDS011;3376;42.664;23.346;2023-08-24T02:20:54;13.63;;;12.87;;
6679;SDS011;3376;42.664;23.346;2023-08-24T02:23:21;14.87;;;14.07;;
6679;SDS011;3376;42.664;23.346;2023-08-24T02:25:48;13.27;;;12.27;;
6679;SDS011;3376;42.664;23.346;2023-08-24T02:28:14;13.43;;;12.63;;
6679;SDS011;3376;42.664;23.346;2023-08-24T02:30:42;13.57;;;12.77;;
6679;SDS011;3376;42.664;23.346;2023-08-24T02:33:09;13.20;;;12.57;;
6679;SDS011;3376;42.664;23.346;2023-08-24T02:35:36;13.97;;;12.80;;
6679;SDS011;3376;42.664;23.346;2023-08-24T02:38:03;13.27;;;12.20;;
6679;SDS011;3376;42.664;23.346;2023-08-24T02:40:30;13.27;;;12.63;;
6679;SDS011;3376;42.664;23.346;2023-08-24T02:42:57;13.80;;;12.57;;
6679;SDS011;3376;42.664;23.346;2023-08-24T02:45:23;14.93;;;13.83;;
6679;SDS011;3376;42.664;23.346;2023-08-24T02:47:52;15.00;;;13.97;;
6679;SDS011;3376;42.664;23.346;2023-08-24T02:50:18;14.57;;;13.67;;
6679;SDS011;3376;42.664;23.346;2023-08-24T02:52:45;14.80;;;13.57;;
6679;SDS011;3376;42.664;23.346;2023-08-24T02:55:12;14.17;;;13.37;;
6679;SDS011;3376;42.664;23.346;2023-08-24T02:57:39;14.20;;;13.20;;
6679;SDS011;3376;42.664;23.346;2023-08-24T03:00:06;15.43;;;14.20;;
6679;SDS011;3376;42.664;23.346;2023-08-24T03:02:34;15.60;;;14.43;;
6679;SDS011;3376;42.664;23.346;2023-08-24T03:05:03;14.57;;;13.67;;
6679;SDS011;3376;42.664;23.346;2023-08-24T03:07:30;15.70;;;14.63;;
6679;SDS011;3376;42.664;23.346;2023-08-24T03:09:57;15.00;;;13.90;;
6679;SDS011;3376;42.664;23.346;2023-08-24T03:12:23;14.17;;;13.37;;
6679;SDS011;3376;42.664;23.346;2023-08-24T03:14:51;14.13;;;13.40;;
6679;SDS011;3376;42.664;23.346;2023-08-24T03:17:18;14.30;;;13.23;;
6679;SDS011;3376;42.664;23.346;2023-08-24T03:19:45;15.00;;;14.00;;
6679;SDS011;3376;42.664;23.346;2023-08-24T03:22:13;14.67;;;13.57;;
6679;SDS011;3376;42.664;23.346;2023-08-24T03:24:40;14.60;;;13.77;;
6679;SDS011;3376;42.664;23.346;2023-08-24T03:27:06;14.27;;;13.43;;
6679;SDS011;3376;42.664;23.346;2023-08-24T03:29:33;16.97;;;15.37;;
6679;SDS011;3376;42.664;23.346;2023-08-24T03:32:00;16.53;;;15.20;;
6679;SDS011;3376;42.664;23.346;2023-08-24T03:34:26;14.63;;;13.63;;
6679;SDS011;3376;42.664;23.346;2023-08-24T03:36:54;14.30;;;13.17;;
6679;SDS011;3376;42.664;23.346;2023-08-24T03:39:23;14.03;;;13.03;;
6679;SDS011;3376;42.664;23.346;2023-08-24T03:41:49;13.50;;;12.70;;
6679;SDS011;3376;42.664;23.346;2023-08-24T03:44:16;13.80;;;13.00;;
6679;SDS011;3376;42.664;23.346;2023-08-24T03:46:43;14.43;;;13.40;;
6679;SDS011;3376;42.664;23.346;2023-08-24T03:49:09;13.87;;;12.87;;
6679;SDS011;3376;42.664;23.346;2023-08-24T03:51:36;15.40;;;14.27;;
6679;SDS011;3376;42.664;23.346;2023-08-24T03:54:03;14.67;;;13.53;;
6679;SDS011;3376;42.664;23.346;2023-08-24T03:56:32;14.70;;;13.87;;
6679;SDS011;3376;42.664;23.346;2023-08-24T03:58:58;14.67;;;13.87;;
6679;SDS011;3376;42.664;23.346;2023-08-24T04:01:25;15.17;;;13.97;;
6679;SDS011;3376;42.664;23.346;2023-08-24T04:03:52;15.67;;;14.20;;
6679;SDS011;3376;42.664;23.346;2023-08-24T04:06:18;15.63;;;14.57;;
6679;SDS011;3376;42.664;23.346;2023-08-24T04:08:45;15.87;;;14.40;;
6679;SDS011;3376;42.664;23.346;2023-08-24T04:11:12;14.93;;;14.10;;
6679;SDS011;3376;42.664;23.346;2023-08-24T04:13:40;17.10;;;13.53;;
6679;SDS011;3376;42.664;23.346;2023-08-24T04:16:07;13.90;;;13.00;;
6679;SDS011;3376;42.664;23.346;2023-08-24T04:18:34;13.43;;;12.63;;
6679;SDS011;3376;42.664;23.346;2023-08-24T04:21:01;15.20;;;13.93;;
6679;SDS011;3376;42.664;23.346;2023-08-24T04:23:27;20.13;;;13.23;;
6679;SDS011;3376;42.664;23.346;2023-08-24T04:25:54;15.10;;;13.73;;
6679;SDS011;3376;42.664;23.346;2023-08-24T04:28:21;14.50;;;13.30;;
6679;SDS011;3376;42.664;23.346;2023-08-24T04:30:53;15.30;;;14.10;;
6679;SDS011;3376;42.664;23.346;2023-08-24T04:33:21;14.67;;;13.63;;
6679;SDS011;3376;42.664;23.346;2023-08-24T04:35:48;14.57;;;13.80;;
6679;SDS011;3376;42.664;23.346;2023-08-24T04:38:15;15.17;;;14.20;;
6679;SDS011;3376;42.664;23.346;2023-08-24T04:40:49;14.17;;;13.37;;
6679;SDS011;3376;42.664;23.346;2023-08-24T04:43:16;15.27;;;14.40;;
6679;SDS011;3376;42.664;23.346;2023-08-24T04:45:45;16.13;;;15.00;;
6679;SDS011;3376;42.664;23.346;2023-08-24T04:48:14;15.30;;;14.10;;
6679;SDS011;3376;42.664;23.346;2023-08-24T04:50:41;14.77;;;13.97;;
6679;SDS011;3376;42.664;23.346;2023-08-24T04:53:08;17.77;;;16.10;;
6679;SDS011;3376;42.664;23.346;2023-08-24T04:55:35;16.77;;;15.40;;
6679;SDS011;3376;42.664;23.346;2023-08-24T04:58:02;14.53;;;13.73;;
6679;SDS011;3376;42.664;23.346;2023-08-24T05:00:29;16.83;;;15.50;;
6679;SDS011;3376;42.664;23.346;2023-08-24T05:02:58;16.87;;;15.53;;
6679;SDS011;3376;42.664;23.346;2023-08-24T05:05:26;18.33;;;16.57;;
6679;SDS011;3376;42.664;23.346;2023-08-24T05:07:54;18.00;;;14.70;;
6679;SDS011;3376;42.664;23.346;2023-08-24T05:10:21;16.63;;;15.10;;
6679;SDS011;3376;42.664;23.346;2023-08-24T05:12:48;16.90;;;15.60;;
6679;SDS011;3376;42.664;23.346;2023-08-24T05:15:14;17.30;;;15.57;;
6679;SDS011;3376;42.664;23.346;2023-08-24T05:17:41;17.83;;;16.23;;
6679;SDS011;3376;42.664;23.346;2023-08-24T05:20:08;18.63;;;16.73;;
6679;SDS011;3376;42.664;23.346;2023-08-24T05:22:37;16.57;;;15.10;;
6679;SDS011;3376;42.664;23.346;2023-08-24T05:25:04;18.20;;;16.30;;
6679;SDS011;3376;42.664;23.346;2023-08-24T05:27:32;18.07;;;16.50;;
6679;SDS011;3376;42.664;23.346;2023-08-24T05:29:59;18.83;;;17.13;;
6679;SDS011;3376;42.664;23.346;2023-08-24T05:32:26;19.10;;;16.40;;
6679;SDS011;3376;42.664;23.346;2023-08-24T05:34:52;16.80;;;15.10;;
6679;SDS011;3376;42.664;23.346;2023-08-24T05:37:19;15.67;;;14.47;;
6679;SDS011;3376;42.664;23.346;2023-08-24T05:39:47;19.27;;;17.10;;
6679;SDS011;3376;42.664;23.346;2023-08-24T05:42:13;17.67;;;15.90;;
6679;SDS011;3376;42.664;23.346;2023-08-24T05:44:40;17.60;;;16.27;;
6679;SDS011;3376;42.664;23.346;2023-08-24T05:47:06;18.17;;;16.60;;
6679;SDS011;3376;42.664;23.346;2023-08-24T05:49:33;16.40;;;15.13;;
6679;SDS011;3376;42.664;23.346;2023-08-24T05:52:00;15.77;;;14.40;;
6679;SDS011;3376;42.664;23.346;2023-08-24T05:54:27;17.63;;;15.87;;
6679;SDS011;3376;42.664;23.346;2023-08-24T05:56:55;17.47;;;16.00;;
6679;SDS011;3376;42.664;23.346;2023-08-24T05:59:25;18.80;;;16.70;;
6679;SDS011;3376;42.664;23.346;2023-08-24T06:01:52;17.85;;;16.55;;
6679;SDS011;3376;42.664;23.346;2023-08-24T06:04:19;17.50;;;16.02;;
6679;SDS011;3376;42.664;23.346;2023-08-24T06:06:45;16.90;;;15.77;;
6679;SDS011;3376;42.664;23.346;2023-08-24T06:09:12;17.63;;;16.15;;
6679;SDS011;3376;42.664;23.346;2023-08-24T06:11:40;18.35;;;16.98;;
6679;SDS011;3376;42.664;23.346;2023-08-24T06:14:08;18.02;;;16.52;;
6679;SDS011;3376;42.664;23.346;2023-08-24T06:16:35;16.65;;;15.10;;
6679;SDS011;3376;42.664;23.346;2023-08-24T06:19:01;17.05;;;15.95;;
6679;SDS011;3376;42.664;23.346;2023-08-24T06:21:28;17.42;;;16.02;;
6679;SDS011;3376;42.664;23.346;2023-08-24T06:23:55;17.15;;;16.00;;
6679;SDS011;3376;42.664;23.346;2023-08-24T06:26:22;17.90;;;16.38;;
6679;SDS011;3376;42.664;23.346;2023-08-24T06:28:48;20.05;;;18.05;;
6679;SDS011;3376;42.664;23.346;2023-08-24T06:31:17;16.55;;;15.38;;
6679;SDS011;3376;42.664;23.346;2023-08-24T06:33:43;20.08;;;18.05;;
6679;SDS011;3376;42.664;23.346;2023-08-24T06:36:10;18.65;;;16.73;;
6679;SDS011;3376;42.664;23.346;2023-08-24T06:38:37;18.40;;;16.75;;
6679;SDS011;3376;42.664;23.346;2023-08-24T06:41:04;16.98;;;15.82;;
6679;SDS011;3376;42.664;23.346;2023-08-24T06:43:33;15.93;;;15.05;;
6679;SDS011;3376;42.664;23.346;2023-08-24T06:46:03;20.33;;;18.60;;
6679;SDS011;3376;42.664;23.346;2023-08-24T06:48:31;18.23;;;16.48;;
6679;SDS011;3376;42.664;23.346;2023-08-24T06:50:57;19.17;;;17.45;;
6679;SDS011;3376;42.664;23.346;2023-08-24T06:53:24;19.05;;;17.23;;
6679;SDS011;3376;42.664;23.346;2023-08-24T06:55:53;18.33;;;16.45;;
6679;SDS011;3376;42.664;23.346;2023-08-24T06:58:21;15.65;;;14.43;;
6679;SDS011;3376;42.664;23.346;2023-08-24T07:00:48;16.67;;;14.95;;
6679;SDS011;3376;42.664;23.346;2023-08-24T07:03:16;15.60;;;14.38;;
6679;SDS011;3376;42.664;23.346;2023-08-24T07:05:44;18.20;;;15.55;;
6679;SDS011;3376;42.664;23.346;2023-08-24T07:08:11;16.63;;;15.40;;
6679;SDS011;3376;42.664;23.346;2023-08-24T07:10:38;17.70;;;16.35;;
6679;SDS011;3376;42.664;23.346;2023-08-24T07:13:06;15.10;;;13.70;;
6679;SDS011;3376;42.664;23.346;2023-08-24T07:15:34;16.80;;;15.25;;
6679;SDS011;3376;42.664;23.346;2023-08-24T07:18:01;14.85;;;13.57;;
6679;SDS011;3376;42.664;23.346;2023-08-24T07:20:30;14.27;;;13.38;;
6679;SDS011;3376;42.664;23.346;2023-08-24T07:22:59;15.45;;;14.60;;
6679;SDS011;3376;42.664;23.346;2023-08-24T07:25:26;15.52;;;13.93;;
6679;SDS011;3376;42.664;23.346;2023-08-24T07:27:53;15.32;;;14.10;;
6679;SDS011;3376;42.664;23.346;2023-08-24T07:30:23;16.48;;;15.32;;
6679;SDS011;3376;42.664;23.346;2023-08-24T07:32:50;14.77;;;13.77;;
6679;SDS011;3376;42.664;23.346;2023-08-24T07:35:17;15.70;;;14.50;;
6679;SDS011;3376;42.664;23.346;2023-08-24T07:37:45;14.50;;;13.48;;
6679;SDS011;3376;42.664;23.346;2023-08-24T07:40:14;15.73;;;14.10;;
6679;SDS011;3376;42.664;23.346;2023-08-24T07:42:44;14.88;;;13.55;;
6679;SDS011;3376;42.664;23.346;2023-08-24T07:45:11;15.65;;;14.13;;
6679;SDS011;3376;42.664;23.346;2023-08-24T07:47:39;14.88;;;14.00;;
6679;SDS011;3376;42.664;23.346;2023-08-24T07:50:06;14.90;;;13.90;;
6679;SDS011;3376;42.664;23.346;2023-08-24T07:52:34;15.25;;;13.80;;
6679;SDS011;3376;42.664;23.346;2023-08-24T07:55:01;14.70;;;13.60;;
6679;SDS011;3376;42.664;23.346;2023-08-24T07:57:30;15.73;;;14.63;;
6679;SDS011;3376;42.664;23.346;2023-08-24T07:59:57;16.83;;;15.10;;
6679;SDS011;3376;42.664;23.346;2023-08-24T08:02:24;15.10;;;14.20;;
6679;SDS011;3376;42.664;23.346;2023-08-24T08:04:51;14.43;;;13.48;;
6679;SDS011;3376;42.664;23.346;2023-08-24T08:07:22;14.40;;;13.40;;
6679;SDS011;3376;42.664;23.346;2023-08-24T08:09:49;15.27;;;14.27;;
6679;SDS011;3376;42.664;23.346;2023-08-24T08:12:16;13.80;;;12.55;;
6679;SDS011;3376;42.664;23.346;2023-08-24T08:14:45;14.45;;;13.60;;
6679;SDS011;3376;42.664;23.346;2023-08-24T08:17:11;12.98;;;12.27;;
6679;SDS011;3376;42.664;23.346;2023-08-24T08:19:38;13.45;;;12.43;;
6679;SDS011;3376;42.664;23.346;2023-08-24T08:22:05;14.02;;;13.13;;
6679;SDS011;3376;42.664;23.346;2023-08-24T08:24:32;13.35;;;12.05;;
6679;SDS011;3376;42.664;23.346;2023-08-24T08:26:58;12.40;;;11.88;;
6679;SDS011;3376;42.664;23.346;2023-08-24T08:29:25;12.57;;;11.80;;
6679;SDS011;3376;42.664;23.346;2023-08-24T08:31:53;13.48;;;12.27;;
6679;SDS011;3376;42.664;23.346;2023-08-24T08:34:20;13.32;;;12.65;;
6679;SDS011;3376;42.664;23.346;2023-08-24T08:36:47;12.63;;;11.85;;
6679;SDS011;3376;42.664;23.346;2023-08-24T08:39:14;13.13;;;12.40;;
6679;SDS011;3376;42.664;23.346;2023-08-24T08:41:43;13.30;;;12.05;;
6679;SDS011;3376;42.664;23.346;2023-08-24T08:44:11;12.55;;;11.88;;
6679;SDS011;3376;42.664;23.346;2023-08-24T08:46:40;11.88;;;11.05;;
6679;SDS011;3376;42.664;23.346;2023-08-24T08:49:08;13.02;;;12.18;;
6679;SDS011;3376;42.664;23.346;2023-08-24T08:51:36;11.93;;;11.38;;
6679;SDS011;3376;42.664;23.346;2023-08-24T08:54:03;13.07;;;11.98;;
6679;SDS011;3376;42.664;23.346;2023-08-24T08:56:31;13.02;;;12.30;;
6679;SDS011;3376;42.664;23.346;2023-08-24T08:58:58;11.43;;;10.93;;
6679;SDS011;3376;42.664;23.346;2023-08-24T09:01:26;11.68;;;10.93;;
6679;SDS011;3376;42.664;23.346;2023-08-24T09:03:53;13.48;;;12.57;;
6679;SDS011;3376;42.664;23.346;2023-08-24T09:06:22;11.90;;;11.07;;
6679;SDS011;3376;42.664;23.346;2023-08-24T09:08:49;13.40;;;12.70;;
6679;SDS011;3376;42.664;23.346;2023-08-24T09:11:16;11.90;;;11.18;;
6679;SDS011;3376;42.664;23.346;2023-08-24T09:13:43;13.70;;;12.65;;
6679;SDS011;3376;42.664;23.346;2023-08-24T09:16:10;12.65;;;11.80;;
6679;SDS011;3376;42.664;23.346;2023-08-24T09:18:41;12.85;;;12.02;;
6679;SDS011;3376;42.664;23.346;2023-08-24T09:21:10;14.85;;;13.45;;
6679;SDS011;3376;42.664;23.346;2023-08-24T09:23:42;13.55;;;12.63;;
6679;SDS011;3376;42.664;23.346;2023-08-24T09:26:10;13.30;;;12.27;;
6679;SDS011;3376;42.664;23.346;2023-08-24T09:28:37;13.13;;;12.10;;
6679;SDS011;3376;42.664;23.346;2023-08-24T09:31:05;12.88;;;12.27;;
6679;SDS011;3376;42.664;23.346;2023-08-24T09:33:32;12.23;;;11.70;;
6679;SDS011;3376;42.664;23.346;2023-08-24T09:35:59;13.15;;;12.30;;
6679;SDS011;3376;42.664;23.346;2023-08-24T09:38:28;12.38;;;11.65;;
6679;SDS011;3376;42.664;23.346;2023-08-24T09:40:56;13.48;;;12.57;;
6679;SDS011;3376;42.664;23.346;2023-08-24T09:43:23;13.25;;;12.55;;
6679;SDS011;3376;42.664;23.346;2023-08-24T09:45:51;13.48;;;12.55;;
6679;SDS011;3376;42.664;23.346;2023-08-24T09:48:19;14.50;;;13.63;;
6679;SDS011;3376;42.664;23.346;2023-08-24T09:50:48;13.70;;;12.80;;
6679;SDS011;3376;42.664;23.346;2023-08-24T09:53:16;13.45;;;12.75;;
6679;SDS011;3376;42.664;23.346;2023-08-24T09:55:48;13.73;;;12.50;;
6679;SDS011;3376;42.664;23.346;2023-08-24T09:58:20;12.73;;;12.20;;
6679;SDS011;3376;42.664;23.346;2023-08-24T10:00:48;13.05;;;12.15;;
6679;SDS011;3376;42.664;23.346;2023-08-24T10:03:16;12.88;;;11.88;;
6679;SDS011;3376;42.664;23.346;2023-08-24T10:05:45;13.55;;;12.63;;
6679;SDS011;3376;42.664;23.346;2023-08-24T10:08:14;12.95;;;12.35;;
6679;SDS011;3376;42.664;23.346;2023-08-24T10:10:43;13.27;;;12.40;;
6679;SDS011;3376;42.664;23.346;2023-08-24T10:13:13;13.25;;;12.65;;
6679;SDS011;3376;42.664;23.346;2023-08-24T10:15:46;12.68;;;11.73;;
6679;SDS011;3376;42.664;23.346;2023-08-24T10:18:14;13.63;;;12.45;;
6679;SDS011;3376;42.664;23.346;2023-08-24T10:20:42;13.07;;;11.95;;
6679;SDS011;3376;42.664;23.346;2023-08-24T10:23:10;12.05;;;11.52;;
6679;SDS011;3376;42.664;23.346;2023-08-24T10:25:39;11.90;;;11.40;;
6679;SDS011;3376;42.664;23.346;2023-08-24T10:28:07;13.80;;;12.73;;
6679;SDS011;3376;42.664;23.346;2023-08-24T10:30:34;12.95;;;12.27;;
6679;SDS011;3376;42.664;23.346;2023-08-24T10:33:04;12.43;;;11.77;;
6679;SDS011;3376;42.664;23.346;2023-08-24T10:35:31;11.52;;;10.40;;
6679;SDS011;3376;42.664;23.346;2023-08-24T10:37:58;10.38;;;9.98;;
6679;SDS011;3376;42.664;23.346;2023-08-24T10:40:31;11.60;;;11.05;;
6679;SDS011;3376;42.664;23.346;2023-08-24T10:43:01;11.32;;;10.45;;
6679;SDS011;3376;42.664;23.346;2023-08-24T10:45:42;12.07;;;11.35;;
6679;SDS011;3376;42.664;23.346;2023-08-24T10:48:22;12.98;;;12.18;;
6679;SDS011;3376;42.664;23.346;2023-08-24T10:53:51;10.95;;;10.07;;
6679;SDS011;3376;42.664;23.346;2023-08-24T10:56:20;11.57;;;10.88;;
6679;SDS011;3376;42.664;23.346;2023-08-24T10:58:47;12.13;;;11.63;;
6679;SDS011;3376;42.664;23.346;2023-08-24T11:01:38;13.38;;;12.48;;
6679;SDS011;3376;42.664;23.346;2023-08-24T11:04:07;13.60;;;12.65;;
6679;SDS011;3376;42.664;23.346;2023-08-24T11:06:34;12.80;;;11.93;;
6679;SDS011;3376;42.664;23.346;2023-08-24T11:09:10;13.93;;;12.52;;
6679;SDS011;3376;42.664;23.346;2023-08-24T11:11:40;12.32;;;11.30;;
6679;SDS011;3376;42.664;23.346;2023-08-24T11:14:13;13.07;;;12.23;;
6679;SDS011;3376;42.664;23.346;2023-08-24T11:16:41;13.55;;;12.55;;
6679;SDS011;3376;42.664;23.346;2023-08-24T11:19:11;15.60;;;14.02;;
6679;SDS011;3376;42.664;23.346;2023-08-24T11:21:40;13.40;;;12.50;;
6679;SDS011;3376;42.664;23.346;2023-08-24T11:24:08;13.32;;;12.77;;
6679;SDS011;3376;42.664;23.346;2023-08-24T11:26:39;13.57;;;12.60;;
6679;SDS011;3376;42.664;23.346;2023-08-24T11:29:07;14.10;;;13.38;;
6679;SDS011;3376;42.664;23.346;2023-08-24T11:31:33;13.18;;;12.57;;
6679;SDS011;3376;42.664;23.346;2023-08-24T11:34:01;12.40;;;11.85;;
6679;SDS011;3376;42.664;23.346;2023-08-24T11:36:31;12.70;;;12.07;;
6679;SDS011;3376;42.664;23.346;2023-08-24T11:38:58;13.68;;;12.65;;
6679;SDS011;3376;42.664;23.346;2023-08-24T11:41:26;14.70;;;13.25;;
6679;SDS011;3376;42.664;23.346;2023-08-24T11:43:59;13.20;;;12.43;;
6679;SDS011;3376;42.664;23.346;2023-08-24T11:46:28;13.38;;;12.45;;
6679;SDS011;3376;42.664;23.346;2023-08-24T11:48:56;14.68;;;12.73;;
6679;SDS011;3376;42.664;23.346;2023-08-24T11:51:24;15.10;;;13.45;;
6679;SDS011;3376;42.664;23.346;2023-08-24T11:53:52;14.43;;;13.20;;
6679;SDS011;3376;42.664;23.346;2023-08-24T11:56:19;14.30;;;13.13;;
6679;SDS011;3376;42.664;23.346;2023-08-24T11:58:47;14.23;;;13.23;;
6679;SDS011;3376;42.664;23.346;2023-08-24T12:01:16;13.65;;;12.95;;
6679;SDS011;3376;42.664;23.346;2023-08-24T12:03:43;14.20;;;13.02;;
6679;SDS011;3376;42.664;23.346;2023-08-24T12:06:10;15.13;;;13.93;;
6679;SDS011;3376;42.664;23.346;2023-08-24T12:08:39;13.32;;;12.48;;
6679;SDS011;3376;42.664;23.346;2023-08-24T12:11:11;13.32;;;12.45;;
6679;SDS011;3376;42.664;23.346;2023-08-24T12:13:42;13.95;;;13.10;;
6679;SDS011;3376;42.664;23.346;2023-08-24T12:16:10;12.52;;;11.73;;
6679;SDS011;3376;42.664;23.346;2023-08-24T12:18:49;13.27;;;12.20;;
6679;SDS011;3376;42.664;23.346;2023-08-24T12:21:17;13.55;;;12.52;;
6679;SDS011;3376;42.664;23.346;2023-08-24T12:23:44;12.95;;;12.23;;
6679;SDS011;3376;42.664;23.346;2023-08-24T12:26:22;12.25;;;11.40;;
6679;SDS011;3376;42.664;23.346;2023-08-24T12:28:49;13.15;;;12.05;;
6679;SDS011;3376;42.664;23.346;2023-08-24T12:31:17;12.77;;;12.05;;
6679;SDS011;3376;42.664;23.346;2023-08-24T12:33:44;12.38;;;11.60;;
6679;SDS011;3376;42.664;23.346;2023-08-24T12:36:12;13.55;;;12.75;;
6679;SDS011;3376;42.664;23.346;2023-08-24T12:38:38;12.40;;;11.70;;
6679;SDS011;3376;42.664;23.346;2023-08-24T12:41:07;12.52;;;11.55;;
6679;SDS011;3376;42.664;23.346;2023-08-24T12:43:35;12.68;;;11.65;;
6679;SDS011;3376;42.664;23.346;2023-08-24T12:46:02;11.95;;;11.07;;
6679;SDS011;3376;42.664;23.346;2023-08-24T12:48:29;11.73;;;10.80;;
6679;SDS011;3376;42.664;23.346;2023-08-24T12:50:56;12.70;;;12.02;;
6679;SDS011;3376;42.664;23.346;2023-08-24T12:53:22;11.30;;;10.43;;
6679;SDS011;3376;42.664;23.346;2023-08-24T12:55:49;11.40;;;10.45;;
6679;SDS011;3376;42.664;23.346;2023-08-24T12:58:16;12.40;;;11.57;;
6679;SDS011;3376;42.664;23.346;2023-08-24T13:00:44;11.23;;;10.60;;
6679;SDS011;3376;42.664;23.346;2023-08-24T13:03:12;11.57;;;10.93;;
6679;SDS011;3376;42.664;23.346;2023-08-24T13:05:39;11.77;;;11.02;;
6679;SDS011;3376;42.664;23.346;2023-08-24T13:08:05;13.27;;;12.68;;
6679;SDS011;3376;42.664;23.346;2023-08-24T13:10:32;12.38;;;11.50;;
6679;SDS011;3376;42.664;23.346;2023-08-24T13:12:59;12.40;;;11.27;;
6679;SDS011;3376;42.664;23.346;2023-08-24T13:15:26;14.90;;;11.43;;
6679;SDS011;3376;42.664;23.346;2023-08-24T13:17:54;11.90;;;10.85;;
6679;SDS011;3376;42.664;23.346;2023-08-24T13:20:21;11.90;;;10.70;;
6679;SDS011;3376;42.664;23.346;2023-08-24T13:22:48;12.95;;;11.65;;
6679;SDS011;3376;42.664;23.346;2023-08-24T13:25:15;12.23;;;10.25;;
6679;SDS011;3376;42.664;23.346;2023-08-24T13:27:42;12.00;;;11.15;;
6679;SDS011;3376;42.664;23.346;2023-08-24T13:30:09;10.27;;;9.88;;
6679;SDS011;3376;42.664;23.346;2023-08-24T13:32:36;11.55;;;10.55;;
6679;SDS011;3376;42.664;23.346;2023-08-24T13:35:06;10.73;;;9.90;;
6679;SDS011;3376;42.664;23.346;2023-08-24T13:37:33;11.45;;;10.85;;
6679;SDS011;3376;42.664;23.346;2023-08-24T13:40:00;11.30;;;10.63;;
6679;SDS011;3376;42.664;23.346;2023-08-24T13:42:27;14.07;;;11.30;;
6679;SDS011;3376;42.664;23.346;2023-08-24T13:44:54;12.82;;;11.73;;
6679;SDS011;3376;42.664;23.346;2023-08-24T13:47:20;13.07;;;12.10;;
6679;SDS011;3376;42.664;23.346;2023-08-24T13:49:47;14.90;;;11.90;;
6679;SDS011;3376;42.664;23.346;2023-08-24T13:52:16;12.27;;;11.35;;
6679;SDS011;3376;42.664;23.346;2023-08-24T13:54:44;13.07;;;11.77;;
6679;SDS011;3376;42.664;23.346;2023-08-24T13:57:11;12.18;;;11.45;;
6679;SDS011;3376;42.664;23.346;2023-08-24T13:59:38;12.38;;;11.48;;
6679;SDS011;3376;42.664;23.346;2023-08-24T14:02:05;13.20;;;12.27;;
6679;SDS011;3376;42.664;23.346;2023-08-24T14:04:33;14.23;;;12.88;;
6679;SDS011;3376;42.664;23.346;2023-08-24T14:07:00;12.73;;;11.80;;
6679;SDS011;3376;42.664;23.346;2023-08-24T14:09:28;12.43;;;11.80;;
6679;SDS011;3376;42.664;23.346;2023-08-24T14:11:54;14.18;;;13.15;;
6679;SDS011;3376;42.664;23.346;2023-08-24T14:14:21;15.57;;;12.98;;
6679;SDS011;3376;42.664;23.346;2023-08-24T14:16:49;13.20;;;12.32;;
6679;SDS011;3376;42.664;23.346;2023-08-24T14:19:20;13.45;;;12.52;;
6679;SDS011;3376;42.664;23.346;2023-08-24T14:21:46;14.02;;;12.57;;
6679;SDS011;3376;42.664;23.346;2023-08-24T14:24:13;13.65;;;12.68;;
6679;SDS011;3376;42.664;23.346;2023-08-24T14:26:41;14.13;;;13.18;;
6679;SDS011;3376;42.664;23.346;2023-08-24T14:29:11;13.10;;;12.15;;
6679;SDS011;3376;42.664;23.346;2023-08-24T14:31:38;13.30;;;12.40;;
6679;SDS011;3376;42.664;23.346;2023-08-24T14:34:05;13.20;;;12.32;;
6679;SDS011;3376;42.664;23.346;2023-08-24T14:36:31;13.80;;;12.60;;
6679;SDS011;3376;42.664;23.346;2023-08-24T14:38:58;13.05;;;12.18;;
6679;SDS011;3376;42.664;23.346;2023-08-24T14:41:25;12.73;;;11.80;;
6679;SDS011;3376;42.664;23.346;2023-08-24T14:43:53;12.50;;;11.82;;